Time;durP1;ratioP1;P1;durP2;ratioP2;P2;SDS_P1;SDS_P2;PMS_P1;PMS_P2;Temp;Humidity;BMP_temperature;BMP_pressure;BME280_temperature;BME280_humidity;BME280_pressure;Samples;Min_cycle;Max_cycle;Signal;HPM_P1;HPM_P2
2021/12/15 00:01:20;;;;;;;15.45;13.15;;;6.60;95.50;;;;;;4998182;28;20050;-75
2021/12/15 00:03:47;;;;;;;15.10;12.70;;;6.60;95.50;;;;;;5003708;28;20617;-74
2021/12/15 00:06:18;;;;;;;15.23;13.30;;;6.60;95.50;;;;;;5004320;28;20593;-74
2021/12/15 00:08:47;;;;;;;15.27;13.05;;;6.60;95.50;;;;;;5005750;28;20058;-74
2021/12/15 00:11:13;;;;;;;15.70;13.23;;;6.60;95.50;;;;;;5002654;28;20057;-74
2021/12/15 00:13:42;;;;;;;15.10;12.90;;;6.60;95.50;;;;;;5005359;28;20054;-74
2021/12/15 00:16:11;;;;;;;15.52;13.30;;;6.60;95.50;;;;;;5005239;28;20736;-74
2021/12/15 00:18:41;;;;;;;16.30;13.60;;;6.60;95.50;;;;;;5004757;28;20069;-75
2021/12/15 00:21:10;;;;;;;16.75;12.98;;;6.60;95.50;;;;;;5006217;28;20060;-75
2021/12/15 00:23:37;;;;;;;16.17;12.88;;;6.60;95.50;;;;;;5004573;28;20215;-74
2021/12/15 00:26:05;;;;;;;15.73;12.93;;;6.60;95.50;;;;;;5003513;28;20049;-74
2021/12/15 00:28:32;;;;;;;16.02;13.13;;;6.60;95.50;;;;;;5007150;28;20062;-74
2021/12/15 00:30:59;;;;;;;16.63;13.90;;;6.60;95.50;;;;;;4999597;28;20053;-71
2021/12/15 00:33:27;;;;;;;17.23;13.75;;;6.60;95.50;;;;;;5003931;28;20063;-74
2021/12/15 00:35:55;;;;;;;17.85;14.95;;;6.60;95.50;;;;;;5004295;28;20734;-74
2021/12/15 00:38:23;;;;;;;17.95;13.18;;;6.60;95.50;;;;;;5004389;28;20049;-74
2021/12/15 00:40:50;;;;;;;15.25;13.45;;;6.60;95.50;;;;;;5001880;28;20682;-74
2021/12/15 00:43:19;;;;;;;15.60;13.20;;;6.60;95.50;;;;;;5004378;28;20410;-73
2021/12/15 00:45:46;;;;;;;15.90;13.55;;;6.60;95.50;;;;;;5001529;28;20054;-74
2021/12/15 00:48:14;;;;;;;15.35;13.15;;;6.60;95.50;;;;;;5002436;28;20092;-74
2021/12/15 00:50:44;;;;;;;16.38;13.57;;;6.60;95.60;;;;;;5004522;28;20054;-75
2021/12/15 00:53:11;;;;;;;17.35;14.10;;;6.60;95.60;;;;;;5000920;28;20697;-73
2021/12/15 00:55:39;;;;;;;16.10;13.20;;;6.60;95.50;;;;;;5003088;28;20046;-73
2021/12/15 00:58:07;;;;;;;16.13;13.32;;;6.60;95.50;;;;;;5002541;28;20061;-75
2021/12/15 01:00:36;;;;;;;15.48;13.88;;;6.60;95.60;;;;;;5001206;28;20054;-74
2021/12/15 01:03:04;;;;;;;15.80;13.57;;;6.60;95.90;;;;;;5003546;28;20061;-75
2021/12/15 01:05:35;;;;;;;16.92;14.25;;;6.60;95.60;;;;;;5005866;28;20051;-72
2021/12/15 01:08:06;;;;;;;17.10;13.23;;;6.60;95.60;;;;;;5004048;28;20061;-73
2021/12/15 01:10:46;;;;;;;17.20;13.60;;;6.60;95.60;;;;;;5004171;28;20046;-74
2021/12/15 01:21:22;;;;;;;15.93;13.63;;;6.50;95.50;;;;;;5003138;28;20858;-75
2021/12/15 01:23:51;;;;;;;16.27;13.50;;;6.60;95.60;;;;;;5002776;28;20054;-74
2021/12/15 01:26:17;;;;;;;16.67;13.88;;;6.60;95.60;;;;;;5003607;28;20264;-74
2021/12/15 01:28:44;;;;;;;15.82;13.38;;;6.60;95.60;;;;;;5004138;28;20076;-74
2021/12/15 01:31:12;;;;;;;15.15;13.38;;;6.50;95.60;;;;;;5000052;28;20049;-73
2021/12/15 01:33:39;;;;;;;18.25;13.20;;;6.60;95.60;;;;;;5003424;28;20537;-74
2021/12/15 01:36:08;;;;;;;15.45;12.70;;;6.60;95.60;;;;;;5003324;28;20100;-75
2021/12/15 01:38:37;;;;;;;15.70;13.30;;;6.50;95.60;;;;;;5000938;28;20137;-74
2021/12/15 01:41:06;;;;;;;16.38;13.63;;;6.50;95.60;;;;;;5000534;28;20054;-75
2021/12/15 01:43:48;;;;;;;16.08;13.55;;;6.50;95.60;;;;;;5004201;28;20050;-75
2021/12/15 01:49:04;;;;;;;15.65;13.25;;;6.50;95.60;;;;;;5002765;28;20060;-74
2021/12/15 01:51:31;;;;;;;16.98;13.43;;;6.50;95.60;;;;;;5002764;28;20054;-74
2021/12/15 01:53:58;;;;;;;18.25;14.55;;;6.50;95.90;;;;;;4998183;28;20073;-71
2021/12/15 01:56:26;;;;;;;19.10;14.18;;;6.50;95.60;;;;;;5002137;28;20054;-73
2021/12/15 01:58:53;;;;;;;18.30;14.45;;;6.50;95.60;;;;;;5001773;28;20066;-74
2021/12/15 02:01:20;;;;;;;17.85;13.48;;;6.50;95.60;;;;;;5006432;28;20050;-73
2021/12/15 02:03:47;;;;;;;19.50;14.40;;;6.50;95.60;;;;;;5003295;28;20058;-74
2021/12/15 02:06:14;;;;;;;18.45;14.15;;;6.50;95.60;;;;;;5003102;28;20050;-74
2021/12/15 02:08:42;;;;;;;18.85;13.95;;;6.50;95.60;;;;;;5002528;28;20053;-76
2021/12/15 02:11:09;;;;;;;19.25;14.20;;;6.50;95.60;;;;;;5000456;28;20049;-73
2021/12/15 02:13:38;;;;;;;17.73;14.02;;;6.50;95.60;;;;;;5000763;28;20692;-75
2021/12/15 02:16:07;;;;;;;20.02;14.25;;;6.50;95.60;;;;;;5001873;28;20436;-74
2021/12/15 02:18:36;;;;;;;24.40;15.07;;;6.50;95.60;;;;;;5002878;28;20057;-74
2021/12/15 02:21:08;;;;;;;20.50;14.32;;;6.50;95.60;;;;;;5003049;28;20053;-74
2021/12/15 02:23:40;;;;;;;21.60;15.23;;;6.50;95.60;;;;;;5000341;28;20057;-74
2021/12/15 02:26:12;;;;;;;20.90;14.90;;;6.50;95.60;;;;;;5000377;28;20046;-74
2021/12/15 02:28:40;;;;;;;19.25;14.27;;;6.50;95.60;;;;;;5001640;28;20161;-72
2021/12/15 02:31:14;;;;;;;21.00;14.68;;;6.50;95.60;;;;;;5000111;28;20515;-74
2021/12/15 02:33:54;;;;;;;21.65;15.48;;;6.50;95.60;;;;;;5002307;28;20277;-73
2021/12/15 02:39:08;;;;;;;22.05;15.07;;;6.50;95.60;;;;;;4999748;28;20184;-74
2021/12/15 02:41:35;;;;;;;23.30;15.40;;;6.50;95.70;;;;;;5002077;28;20056;-73
2021/12/15 02:44:07;;;;;;;27.75;17.15;;;6.50;95.60;;;;;;5003432;28;20053;-74
2021/12/15 02:46:36;;;;;;;23.65;15.82;;;6.50;95.60;;;;;;5000248;28;20054;-75
2021/12/15 02:49:06;;;;;;;22.98;14.98;;;6.50;95.60;;;;;;5001948;28;20052;-74
2021/12/15 02:51:35;;;;;;;23.38;15.60;;;6.50;95.60;;;;;;5000775;28;20548;-74
2021/12/15 02:54:07;;;;;;;23.77;16.02;;;6.50;95.70;;;;;;5000315;28;20057;-74
2021/12/15 02:56:33;;;;;;;26.05;16.63;;;6.50;95.70;;;;;;5001457;28;20050;-74
2021/12/15 02:59:03;;;;;;;22.75;15.77;;;6.50;95.70;;;;;;5003273;28;20072;-74
2021/12/15 03:01:40;;;;;;;26.15;16.48;;;6.50;95.70;;;;;;4996916;28;20061;-74
2021/12/15 03:04:26;;;;;;;27.20;16.95;;;6.50;95.70;;;;;;5001604;28;20084;-75
2021/12/15 03:06:59;;;;;;;25.45;15.82;;;6.50;95.70;;;;;;5003119;28;20050;-74
2021/12/15 03:15:19;;;;;;;26.15;17.02;;;6.40;95.70;;;;;;4998828;28;20143;-74
2021/12/15 03:15:29;;;;;;;27.60;17.52;;;6.40;95.60;;;;;;4999498;28;20517;-75
2021/12/15 03:17:57;;;;;;;27.30;17.05;;;6.50;95.70;;;;;;5001289;28;20088;-74
2021/12/15 03:20:26;;;;;;;27.83;16.98;;;6.40;95.70;;;;;;5004776;28;20065;-74
2021/12/15 03:22:54;;;;;;;25.23;16.45;;;6.40;95.70;;;;;;5004839;28;20577;-74
2021/12/15 03:25:21;;;;;;;31.15;17.45;;;6.50;95.70;;;;;;4999190;28;20614;-74
2021/12/15 03:36:04;;;;;;;25.83;17.05;;;6.40;95.70;;;;;;4966445;28;20140;-74
2021/12/15 03:38:34;;;;;;;26.55;16.73;;;6.40;95.70;;;;;;5003142;28;20061;-74
2021/12/15 03:41:01;;;;;;;29.17;17.05;;;6.40;95.70;;;;;;4999874;28;20065;-74
2021/12/15 03:43:28;;;;;;;28.52;18.10;;;6.40;95.70;;;;;;5010015;28;20057;-74
2021/12/15 03:45:58;;;;;;;26.30;16.85;;;6.40;95.70;;;;;;5002524;28;20125;-74
2021/12/15 03:48:27;;;;;;;28.23;17.25;;;6.40;95.70;;;;;;5003413;28;20058;-74
2021/12/15 03:50:56;;;;;;;27.42;17.90;;;6.40;95.70;;;;;;5004529;28;20058;-74
2021/12/15 03:53:24;;;;;;;27.13;17.15;;;6.40;95.70;;;;;;5002124;28;20077;-74
2021/12/15 03:55:53;;;;;;;28.42;16.90;;;6.40;95.70;;;;;;5004197;28;20057;-74
2021/12/15 03:58:23;;;;;;;27.98;16.70;;;6.40;95.70;;;;;;5003514;28;20045;-72
2021/12/15 04:00:54;;;;;;;22.88;16.13;;;6.40;95.70;;;;;;5008603;28;20414;-74
2021/12/15 04:03:27;;;;;;;25.83;16.48;;;6.40;95.70;;;;;;5004964;28;20050;-74
2021/12/15 04:05:55;;;;;;;29.23;17.65;;;6.40;95.70;;;;;;5000834;28;20046;-72
2021/12/15 04:08:23;;;;;;;26.63;16.42;;;6.40;95.70;;;;;;5005469;28;20084;-74
2021/12/15 04:10:50;;;;;;;28.27;16.60;;;6.40;95.70;;;;;;5004087;28;20053;-74
2021/12/15 04:13:18;;;;;;;27.35;17.20;;;6.40;95.70;;;;;;5004866;28;20053;-74
2021/12/15 04:15:52;;;;;;;27.10;17.33;;;6.40;95.70;;;;;;4998937;28;20054;-73
2021/12/15 04:18:19;;;;;;;26.48;17.15;;;6.40;95.70;;;;;;5005537;28;20153;-73
2021/12/15 04:20:46;;;;;;;29.02;17.55;;;6.40;95.70;;;;;;5005025;28;20111;-74
2021/12/15 04:23:18;;;;;;;29.75;17.27;;;6.40;95.70;;;;;;5004132;28;20065;-75
2021/12/15 04:25:46;;;;;;;25.33;16.95;;;6.40;95.70;;;;;;5005010;28;20054;-74
2021/12/15 04:28:16;;;;;;;28.55;18.02;;;6.40;95.70;;;;;;5005024;28;20943;-74
2021/12/15 04:30:48;;;;;;;30.77;18.15;;;6.40;95.80;;;;;;5003252;28;20882;-75
2021/12/15 04:33:19;;;;;;;25.70;16.65;;;6.30;95.80;;;;;;5003469;28;20053;-76
2021/12/15 04:35:46;;;;;;;32.58;18.05;;;6.40;95.80;;;;;;5004929;28;20071;-75
2021/12/15 04:38:14;;;;;;;27.40;17.30;;;6.30;95.70;;;;;;5003132;28;20057;-74
2021/12/15 04:40:42;;;;;;;28.63;18.00;;;6.40;95.80;;;;;;4999619;28;20409;-74
2021/12/15 04:43:10;;;;;;;28.60;17.77;;;6.40;95.80;;;;;;5004170;28;20049;-74
2021/12/15 04:45:37;;;;;;;26.33;16.95;;;6.40;95.80;;;;;;5002917;28;20124;-74
2021/12/15 04:48:06;;;;;;;27.13;17.00;;;6.30;95.80;;;;;;5003776;28;20056;-74
2021/12/15 04:50:33;;;;;;;27.58;16.98;;;6.30;95.80;;;;;;5004233;28;20506;-74
2021/12/15 04:53:03;;;;;;;27.35;16.95;;;6.40;95.80;;;;;;5003684;28;20050;-74
2021/12/15 04:55:30;;;;;;;25.45;17.08;;;6.30;95.80;;;;;;5000790;28;20792;-75
2021/12/15 04:57:58;;;;;;;28.40;17.23;;;6.30;95.80;;;;;;5000979;28;20068;-73
2021/12/15 05:00:29;;;;;;;26.95;16.45;;;6.30;95.80;;;;;;5004373;28;20133;-75
2021/12/15 05:02:56;;;;;;;27.23;16.73;;;6.40;95.80;;;;;;5003850;28;20062;-73
2021/12/15 05:05:26;;;;;;;27.33;17.33;;;6.30;95.80;;;;;;5003446;28;20045;-74
2021/12/15 05:07:53;;;;;;;27.33;16.17;;;6.30;95.80;;;;;;5004784;28;20053;-74
2021/12/15 05:10:21;;;;;;;27.58;17.83;;;6.30;95.80;;;;;;5000033;28;20054;-74
2021/12/15 05:12:48;;;;;;;25.90;16.67;;;6.40;95.80;;;;;;5003314;28;20388;-74
2021/12/15 05:15:16;;;;;;;30.63;18.23;;;6.30;96.10;;;;;;5001864;28;20057;-75
2021/12/15 05:17:43;;;;;;;26.83;17.38;;;6.30;95.80;;;;;;5005359;28;20053;-74
2021/12/15 05:20:10;;;;;;;26.38;17.27;;;6.30;95.80;;;;;;5003336;28;20497;-74
2021/12/15 05:22:39;;;;;;;26.98;17.02;;;6.30;95.80;;;;;;5003778;28;20054;-74
2021/12/15 05:25:09;;;;;;;28.05;16.80;;;6.30;95.80;;;;;;5002502;28;20058;-74
2021/12/15 05:27:36;;;;;;;27.50;15.85;;;6.30;95.80;;;;;;5003146;28;20454;-74
2021/12/15 05:30:06;;;;;;;27.63;16.95;;;6.30;95.80;;;;;;5002962;28;20058;-74
2021/12/15 05:32:32;;;;;;;26.30;16.65;;;6.30;95.80;;;;;;5000608;28;20061;-74
2021/12/15 05:34:59;;;;;;;27.63;17.02;;;6.30;95.80;;;;;;5003995;28;20568;-73
2021/12/15 05:37:28;;;;;;;27.95;16.85;;;6.30;95.80;;;;;;5002645;28;20049;-74
2021/12/15 05:39:57;;;;;;;27.13;16.50;;;6.30;95.80;;;;;;4997675;28;20054;-73
2021/12/15 05:42:25;;;;;;;27.92;17.13;;;6.30;95.80;;;;;;5001481;28;20053;-74
2021/12/15 05:44:53;;;;;;;26.02;16.77;;;6.30;95.80;;;;;;5004773;28;20053;-74
2021/12/15 05:47:20;;;;;;;26.25;17.08;;;6.30;95.80;;;;;;5000310;28;20486;-74
2021/12/15 05:49:50;;;;;;;25.77;16.20;;;6.30;95.80;;;;;;5002847;28;20081;-75
2021/12/15 05:52:18;;;;;;;27.33;17.15;;;6.30;95.80;;;;;;5001942;28;20147;-74
2021/12/15 05:54:45;;;;;;;25.70;16.73;;;6.30;95.80;;;;;;4994482;28;20054;-74
2021/12/15 05:57:13;;;;;;;28.73;18.00;;;6.30;95.80;;;;;;5001534;28;20540;-74
2021/12/15 05:59:40;;;;;;;26.25;16.77;;;6.30;95.80;;;;;;5003753;28;20054;-74
2021/12/15 06:02:08;;;;;;;26.08;16.58;;;6.30;95.80;;;;;;5000772;28;20549;-74
2021/12/15 06:04:35;;;;;;;25.80;17.08;;;6.30;95.80;;;;;;5003163;28;20141;-73
2021/12/15 06:07:02;;;;;;;25.23;17.30;;;6.30;95.80;;;;;;5000116;28;20042;-75
2021/12/15 06:09:29;;;;;;;27.70;17.27;;;6.30;95.80;;;;;;4997006;28;20065;-74
2021/12/15 06:11:56;;;;;;;26.38;17.15;;;6.30;95.90;;;;;;4999730;28;20064;-75
2021/12/15 06:14:27;;;;;;;28.67;17.60;;;6.20;95.80;;;;;;5002477;28;20793;-74
2021/12/15 06:16:56;;;;;;;24.65;16.33;;;6.30;95.80;;;;;;4997390;28;20054;-74
2021/12/15 06:19:23;;;;;;;24.73;16.48;;;6.30;95.90;;;;;;5007689;28;20053;-74
2021/12/15 06:21:50;;;;;;;25.33;16.88;;;6.30;95.80;;;;;;5002293;28;20060;-74
2021/12/15 06:24:17;;;;;;;26.30;17.10;;;6.30;95.80;;;;;;5001342;28;20049;-74
2021/12/15 06:26:44;;;;;;;26.40;17.25;;;6.30;96.20;;;;;;5000363;28;20054;-74
2021/12/15 06:29:11;;;;;;;25.75;16.33;;;6.20;95.80;;;;;;5001330;28;20049;-75
2021/12/15 06:31:40;;;;;;;25.50;16.67;;;6.30;95.90;;;;;;4999562;28;20061;-74
2021/12/15 06:34:07;;;;;;;28.02;17.98;;;6.30;95.90;;;;;;5001832;28;20141;-74
2021/12/15 06:36:34;;;;;;;28.10;17.75;;;6.30;95.90;;;;;;5000402;28;20058;-74
2021/12/15 06:39:04;;;;;;;26.55;17.15;;;6.20;95.80;;;;;;5000417;28;20061;-75
2021/12/15 06:41:31;;;;;;;30.48;17.88;;;6.20;95.80;;;;;;4995657;28;20849;-74
2021/12/15 06:43:59;;;;;;;28.13;18.02;;;6.20;95.80;;;;;;5000653;28;20058;-74
2021/12/15 06:46:51;;;;;;;25.42;16.83;;;6.30;95.90;;;;;;5000315;28;20060;-74
2021/12/15 07:00:14;;;;;;;28.73;17.48;;;6.20;95.90;;;;;;4985190;28;20042;-74
2021/12/15 07:02:42;;;;;;;26.83;16.80;;;6.30;95.90;;;;;;4999933;28;20532;-73
2021/12/15 07:05:11;;;;;;;24.63;16.70;;;6.20;95.90;;;;;;5000984;28;20053;-73
2021/12/15 07:07:41;;;;;;;27.50;17.40;;;6.20;95.90;;;;;;4997901;28;20050;-74
2021/12/15 07:10:10;;;;;;;27.38;16.95;;;6.20;95.90;;;;;;5000012;28;20069;-74
2021/12/15 07:12:37;;;;;;;29.00;17.35;;;6.30;95.90;;;;;;4999204;28;20740;-74
2021/12/15 07:15:05;;;;;;;27.30;17.08;;;6.20;95.90;;;;;;4997200;28;20046;-75
2021/12/15 07:17:32;;;;;;;27.48;17.50;;;6.20;95.90;;;;;;5000381;28;20057;-74
2021/12/15 07:20:17;;;;;;;28.40;17.10;;;6.30;95.90;;;;;;5002662;28;20058;-73
2021/12/15 07:22:46;;;;;;;23.85;16.20;;;6.20;95.90;;;;;;5000921;28;20058;-75
2021/12/15 07:25:15;;;;;;;25.45;16.92;;;6.30;95.90;;;;;;4998705;28;20046;-74
2021/12/15 07:27:42;;;;;;;27.25;17.13;;;6.30;95.90;;;;;;5000790;28;20136;-73
2021/12/15 07:30:11;;;;;;;30.63;17.50;;;6.30;95.90;;;;;;5001517;28;20045;-74
2021/12/15 07:32:38;;;;;;;25.35;17.38;;;6.30;95.90;;;;;;4997604;28;20054;-74
2021/12/15 07:35:07;;;;;;;23.33;16.33;;;6.20;95.90;;;;;;5001078;28;20050;-74
2021/12/15 07:37:35;;;;;;;30.55;17.73;;;6.20;95.90;;;;;;5002086;28;20049;-74
2021/12/15 07:40:07;;;;;;;25.40;16.83;;;6.20;95.90;;;;;;5000243;28;20793;-74
2021/12/15 07:42:36;;;;;;;25.00;15.90;;;6.30;95.90;;;;;;5001373;28;20050;-74
2021/12/15 07:45:05;;;;;;;25.45;15.85;;;6.30;95.90;;;;;;5002187;28;20133;-74
2021/12/15 07:47:32;;;;;;;25.23;16.35;;;6.20;95.90;;;;;;4999291;28;20061;-74
2021/12/15 07:50:01;;;;;;;26.15;16.58;;;6.20;95.90;;;;;;5001396;28;20421;-74
2021/12/15 07:52:28;;;;;;;22.55;15.82;;;6.20;95.90;;;;;;5000099;28;20058;-75
2021/12/15 07:54:55;;;;;;;24.35;16.08;;;6.20;95.90;;;;;;4999418;28;20046;-75
2021/12/15 07:57:28;;;;;;;24.83;17.15;;;6.30;96.00;;;;;;4998604;28;20050;-75
2021/12/15 07:59:56;;;;;;;26.20;16.80;;;6.20;95.90;;;;;;5000546;28;20052;-75
2021/12/15 08:02:23;;;;;;;25.00;16.48;;;6.30;95.90;;;;;;4997698;28;20072;-75
2021/12/15 08:04:50;;;;;;;24.25;16.05;;;6.20;95.90;;;;;;4994672;28;20053;-74
2021/12/15 08:07:17;;;;;;;25.23;16.10;;;6.30;96.00;;;;;;4996152;28;20081;-75
2021/12/15 08:09:45;;;;;;;24.42;16.13;;;6.20;95.90;;;;;;5004633;28;20115;-74
2021/12/15 08:12:12;;;;;;;24.90;16.48;;;6.20;95.90;;;;;;5003444;28;20046;-74
2021/12/15 08:14:40;;;;;;;27.73;17.48;;;6.20;95.90;;;;;;5000784;28;20532;-74
2021/12/15 08:17:07;;;;;;;23.80;16.33;;;6.30;96.00;;;;;;5002322;28;20058;-75
2021/12/15 08:19:34;;;;;;;24.83;16.38;;;6.20;95.90;;;;;;5000746;28;20054;-76
2021/12/15 08:22:01;;;;;;;22.77;15.52;;;6.30;96.00;;;;;;5000764;28;20054;-74
2021/12/15 08:24:28;;;;;;;26.05;17.27;;;6.30;96.00;;;;;;5000647;28;20062;-75
2021/12/15 08:26:55;;;;;;;25.75;16.15;;;6.30;96.00;;;;;;5003587;28;20050;-74
2021/12/15 08:29:22;;;;;;;23.83;15.80;;;6.30;95.90;;;;;;5004594;28;20054;-75
2021/12/15 08:31:50;;;;;;;23.33;15.40;;;6.30;95.90;;;;;;5001563;28;20141;-74
2021/12/15 08:34:16;;;;;;;24.23;16.08;;;6.30;95.90;;;;;;5002138;28;20057;-74
2021/12/15 08:36:44;;;;;;;24.42;16.40;;;6.30;95.90;;;;;;4998312;28;20053;-74
2021/12/15 08:39:11;;;;;;;25.48;16.67;;;6.30;95.90;;;;;;5003303;28;20058;-74
2021/12/15 08:41:38;;;;;;;25.42;16.13;;;6.30;95.90;;;;;;5003703;28;20049;-74
2021/12/15 08:44:08;;;;;;;25.20;16.42;;;6.30;95.90;;;;;;4999468;28;20054;-74
2021/12/15 08:46:39;;;;;;;25.05;16.55;;;6.30;95.80;;;;;;5000029;28;20444;-73
2021/12/15 08:49:10;;;;;;;24.50;16.30;;;6.30;95.80;;;;;;5001653;28;20052;-76
2021/12/15 08:51:37;;;;;;;23.35;16.08;;;6.30;95.80;;;;;;5001975;28;20057;-73
2021/12/15 08:54:08;;;;;;;25.73;17.45;;;6.30;95.80;;;;;;5000711;28;20053;-75
2021/12/15 08:56:36;;;;;;;24.13;16.23;;;6.30;95.80;;;;;;5002308;28;20065;-74
2021/12/15 08:59:04;;;;;;;25.40;16.20;;;6.30;95.80;;;;;;5002734;28;20045;-75
2021/12/15 09:01:32;;;;;;;24.33;16.17;;;6.30;95.80;;;;;;5002808;28;20046;-75
2021/12/15 09:03:59;;;;;;;24.27;15.82;;;6.30;95.90;;;;;;4998301;28;20049;-75
2021/12/15 09:06:28;;;;;;;25.00;16.30;;;6.30;95.90;;;;;;5004625;28;20054;-75
2021/12/15 09:08:54;;;;;;;24.55;15.80;;;6.40;95.90;;;;;;5001361;28;20116;-74
2021/12/15 09:11:24;;;;;;;23.92;15.77;;;6.30;95.80;;;;;;5001887;28;20789;-75
2021/12/15 09:13:52;;;;;;;26.60;17.17;;;6.30;95.80;;;;;;5003581;28;20053;-75
2021/12/15 09:16:20;;;;;;;23.55;17.10;;;6.40;95.80;;;;;;5001764;28;20081;-75
2021/12/15 09:18:50;;;;;;;24.58;16.73;;;6.40;95.80;;;;;;5001545;28;20064;-75
2021/12/15 09:21:20;;;;;;;22.25;15.80;;;6.40;95.80;;;;;;4999855;28;20544;-75
2021/12/15 09:23:49;;;;;;;24.23;16.48;;;6.40;95.80;;;;;;5003851;28;20050;-75
2021/12/15 09:26:16;;;;;;;24.17;16.70;;;6.40;95.80;;;;;;4999185;28;20053;-75
2021/12/15 09:28:42;;;;;;;22.33;16.02;;;6.40;95.70;;;;;;5002480;28;20100;-75
2021/12/15 09:31:10;;;;;;;25.50;16.73;;;6.40;95.70;;;;;;5000073;28;20403;-75
2021/12/15 09:33:41;;;;;;;23.73;15.85;;;6.40;95.70;;;;;;5003085;28;20506;-75
2021/12/15 09:36:10;;;;;;;23.33;16.08;;;6.40;95.70;;;;;;5000343;28;20144;-75
2021/12/15 09:38:37;;;;;;;23.35;16.27;;;6.40;95.70;;;;;;5002853;28;20054;-76
2021/12/15 09:41:08;;;;;;;22.15;15.75;;;6.40;95.70;;;;;;5002814;28;20050;-75
2021/12/15 09:43:36;;;;;;;21.88;16.25;;;6.40;95.70;;;;;;5004439;28;20088;-75
2021/12/15 09:46:09;;;;;;;23.15;15.95;;;6.40;95.70;;;;;;4994951;28;20061;-76
2021/12/15 10:05:37;;;;;;;24.58;17.58;;;6.50;95.80;;;;;;4998503;28;20053;-76
2021/12/15 10:11:13;;;;;;;24.48;16.15;;;6.50;95.80;;;;;;5000425;28;20061;-76
2021/12/15 10:19:20;;;;;;;23.17;16.65;;;6.50;95.70;;;;;;4996435;28;20053;-76
2021/12/15 10:22:04;;;;;;;24.70;16.42;;;6.60;95.70;;;;;;5002015;28;20718;-76
2021/12/15 10:24:34;;;;;;;23.45;16.27;;;6.60;95.70;;;;;;4997969;28;20049;-75
2021/12/15 10:27:04;;;;;;;25.63;17.23;;;6.60;95.70;;;;;;5001029;28;20057;-76
2021/12/15 10:29:32;;;;;;;23.95;17.30;;;6.60;95.80;;;;;;4999291;28;20049;-76
2021/12/15 10:32:02;;;;;;;23.30;16.08;;;6.60;95.80;;;;;;4997259;28;20076;-75
2021/12/15 10:34:29;;;;;;;25.90;17.38;;;6.60;95.80;;;;;;5000247;28;20521;-77
2021/12/15 10:36:57;;;;;;;26.08;17.02;;;6.60;95.80;;;;;;5002170;28;20081;-77
2021/12/15 10:39:25;;;;;;;23.27;15.98;;;6.70;95.80;;;;;;4997669;28;20049;-76
2021/12/15 10:41:55;;;;;;;25.60;18.05;;;6.60;95.70;;;;;;5001461;28;20062;-75
2021/12/15 10:44:25;;;;;;;24.55;18.05;;;6.70;95.80;;;;;;5000602;28;20850;-75
2021/12/15 10:46:57;;;;;;;26.95;17.95;;;6.70;95.80;;;;;;4999068;28;20058;-76
2021/12/15 10:49:26;;;;;;;22.67;16.45;;;6.70;95.80;;;;;;5000779;28;20066;-76
2021/12/15 10:51:57;;;;;;;24.30;17.15;;;6.70;95.80;;;;;;5003636;28;20058;-76
2021/12/15 10:54:27;;;;;;;23.08;15.70;;;6.70;95.70;;;;;;4999102;28;20747;-75
2021/12/15 10:56:57;;;;;;;23.55;16.80;;;6.70;95.70;;;;;;4999415;28;20050;-76
2021/12/15 10:59:26;;;;;;;22.42;16.55;;;6.80;95.80;;;;;;4999104;28;20049;-76
2021/12/15 11:01:59;;;;;;;22.48;16.20;;;6.80;95.80;;;;;;4997173;28;20532;-76
2021/12/15 11:04:33;;;;;;;25.05;17.58;;;6.80;95.80;;;;;;4996334;28;20050;-76
2021/12/15 11:07:14;;;;;;;27.63;17.92;;;6.80;95.80;;;;;;5000278;28;20137;-75
2021/12/15 11:09:44;;;;;;;25.60;17.55;;;6.80;95.80;;;;;;4999034;28;20048;-75
2021/12/15 11:12:14;;;;;;;23.10;16.67;;;6.90;95.80;;;;;;5000654;28;20128;-75
2021/12/15 11:14:45;;;;;;;25.98;17.48;;;6.90;95.80;;;;;;4995506;28;20069;-76
2021/12/15 11:17:16;;;;;;;25.40;17.40;;;6.90;95.80;;;;;;4996152;28;20525;-73
2021/12/15 11:20:07;;;;;;;24.60;17.00;;;6.90;95.80;;;;;;4997094;28;20049;-76
2021/12/15 11:23:08;;;;;;;24.50;17.27;;;6.90;95.80;;;;;;4994488;28;20046;-76
2021/12/15 11:25:39;;;;;;;23.63;17.02;;;6.90;95.80;;;;;;4933318;28;20535;-75
2021/12/15 11:28:12;;;;;;;24.23;16.95;;;6.90;95.70;;;;;;4942399;28;20058;-76
2021/12/15 11:30:43;;;;;;;25.45;17.92;;;6.90;95.70;;;;;;4968738;28;20061;-76
2021/12/15 11:33:14;;;;;;;24.65;17.88;;;7.00;96.00;;;;;;4999499;28;20050;-75
2021/12/15 11:35:45;;;;;;;24.73;17.08;;;7.00;95.70;;;;;;4995446;28;20057;-76
2021/12/15 11:38:16;;;;;;;24.63;16.85;;;7.00;95.70;;;;;;4998830;28;20049;-76
2021/12/15 11:40:49;;;;;;;24.10;17.30;;;7.00;95.70;;;;;;4996773;28;20065;-76
2021/12/15 11:43:30;;;;;;;23.02;16.70;;;7.00;96.00;;;;;;5000843;28;20063;-77
2021/12/15 11:45:58;;;;;;;22.30;15.88;;;7.10;95.70;;;;;;5001176;28;20054;-76
2021/12/15 11:48:28;;;;;;;22.58;17.40;;;7.10;95.70;;;;;;5001931;28;20446;-76
2021/12/15 11:50:59;;;;;;;20.63;15.75;;;7.10;95.70;;;;;;5004716;28;20050;-76
2021/12/15 11:53:36;;;;;;;21.75;15.73;;;7.10;95.70;;;;;;5002669;28;20061;-76
2021/12/15 11:56:24;;;;;;;21.00;15.30;;;7.10;95.60;;;;;;5005096;28;20057;-76
2021/12/15 11:58:56;;;;;;;19.20;14.70;;;7.10;95.60;;;;;;5010094;28;20049;-76
2021/12/15 12:01:44;;;;;;;21.58;16.05;;;7.10;95.60;;;;;;5002378;28;20053;-76
2021/12/15 12:04:16;;;;;;;20.00;15.38;;;7.10;95.60;;;;;;5002522;28;20521;-76
2021/12/15 12:06:43;;;;;;;20.27;15.20;;;7.10;95.60;;;;;;5003854;28;20049;-76
2021/12/15 12:09:10;;;;;;;19.55;14.80;;;7.10;95.60;;;;;;4996225;28;20140;-75
2021/12/15 12:11:40;;;;;;;19.23;14.98;;;7.20;95.60;;;;;;4997989;28;20843;-75
2021/12/15 12:14:16;;;;;;;20.27;15.15;;;7.20;95.60;;;;;;5003655;28;20429;-74
2021/12/15 12:16:44;;;;;;;18.50;13.95;;;7.20;95.50;;;;;;5001386;28;20049;-75
2021/12/15 12:19:13;;;;;;;18.98;13.95;;;7.20;95.50;;;;;;5000186;28;20052;-75
2021/12/15 12:21:40;;;;;;;19.05;13.73;;;7.20;95.50;;;;;;5002889;28;20053;-75
2021/12/15 12:24:11;;;;;;;18.67;13.57;;;7.20;95.50;;;;;;5003738;28;20054;-76
2021/12/15 12:26:38;;;;;;;18.15;13.05;;;7.20;95.50;;;;;;5007786;28;20058;-76
2021/12/15 12:29:05;;;;;;;17.00;12.68;;;7.20;95.50;;;;;;4994781;28;20046;-74
2021/12/15 12:31:32;;;;;;;16.02;12.88;;;7.30;95.50;;;;;;4998008;28;20054;-75
2021/12/15 12:34:00;;;;;;;16.27;13.02;;;7.20;95.40;;;;;;4997263;28;20053;-75
2021/12/15 12:36:31;;;;;;;14.45;12.02;;;7.30;95.50;;;;;;5001324;28;20454;-74
2021/12/15 12:39:03;;;;;;;16.00;12.80;;;7.30;95.40;;;;;;5001310;28;20852;-74
2021/12/15 12:41:37;;;;;;;16.50;12.25;;;7.30;95.40;;;;;;5002962;28;20494;-74
2021/12/15 12:44:07;;;;;;;13.05;11.18;;;7.30;95.40;;;;;;4998596;28;20046;-74
2021/12/15 12:46:39;;;;;;;12.65;10.57;;;7.30;95.30;;;;;;4999126;28;20164;-74
2021/12/15 12:49:52;;;;;;;13.63;10.68;;;7.30;95.30;;;;;;5001199;28;20065;-74
2021/12/15 12:59:22;;;;;;;11.90;10.25;;;7.40;95.20;;;;;;5001751;28;20069;-74
2021/12/15 13:00:52;;;;;;;13.07;10.25;;;7.40;95.20;;;;;;4995523;28;20050;-74
2021/12/15 13:03:30;;;;;;;11.48;9.38;;;7.40;95.20;;;;;;5003444;28;20140;-74
2021/12/15 13:06:01;;;;;;;11.02;9.52;;;7.40;95.20;;;;;;5002209;28;20061;-74
2021/12/15 13:08:40;;;;;;;10.27;8.70;;;7.40;95.10;;;;;;4999758;28;20053;-74
2021/12/15 13:11:16;;;;;;;10.90;9.25;;;7.40;95.10;;;;;;5001667;28;20127;-74
2021/12/15 13:13:56;;;;;;;12.48;9.57;;;7.40;95.10;;;;;;5000277;28;20053;-74
2021/12/15 13:16:30;;;;;;;10.85;9.23;;;7.50;95.10;;;;;;4994667;28;20498;-74
2021/12/15 13:19:00;;;;;;;10.93;9.60;;;7.50;95.10;;;;;;4998084;28;20073;-74
2021/12/15 13:21:42;;;;;;;11.27;9.52;;;7.50;95.10;;;;;;4998019;28;20060;-75
2021/12/15 13:30:05;;;;;;;10.95;9.10;;;7.50;95.00;;;;;;5000288;28;20061;-75
2021/12/15 13:32:37;;;;;;;10.35;9.15;;;7.50;95.00;;;;;;5002195;28;20068;-74
2021/12/15 13:35:05;;;;;;;9.88;8.40;;;7.50;95.00;;;;;;4995876;28;20485;-75
2021/12/15 13:37:53;;;;;;;9.68;8.27;;;7.50;94.90;;;;;;4998102;28;20061;-74
2021/12/15 13:40:53;;;;;;;10.48;8.70;;;7.50;94.90;;;;;;5000914;28;20986;-74
2021/12/15 13:43:40;;;;;;;9.60;8.35;;;7.50;94.90;;;;;;5000547;28;20140;-75
2021/12/15 13:46:10;;;;;;;9.45;8.20;;;7.50;94.90;;;;;;4996538;28;20057;-75
2021/12/15 13:48:58;;;;;;;10.18;8.80;;;7.60;94.90;;;;;;5001049;28;20053;-74
2021/12/15 13:51:58;;;;;;;10.68;8.00;;;7.60;95.00;;;;;;5001317;28;20065;-75
2021/12/15 13:55:03;;;;;;;9.35;8.20;;;7.60;94.90;;;;;;4997487;28;20810;-74
2021/12/15 13:57:35;;;;;;;9.93;8.43;;;7.50;94.90;;;;;;4988717;28;20054;-74
2021/12/15 14:00:20;;;;;;;10.05;7.88;;;7.60;94.90;;;;;;5001050;28;20359;-75
2021/12/15 14:03:00;;;;;;;9.30;8.05;;;7.50;94.90;;;;;;4996807;28;20058;-76
2021/12/15 14:05:29;;;;;;;8.65;7.45;;;7.60;94.90;;;;;;4998607;28;20180;-74
2021/12/15 14:08:01;;;;;;;8.15;7.28;;;7.50;94.80;;;;;;5000270;28;20057;-75